createdAt,value
2017-11-20T00:01:08.386Z,7.63
2017-11-20T00:03:36.200Z,3.90
2017-11-20T00:06:03.650Z,20.00
2017-11-20T00:08:31.065Z,7.43
2017-11-20T00:10:58.493Z,5.00
2017-11-20T00:13:27.563Z,4.77
2017-11-20T00:15:54.978Z,7.40
2017-11-20T00:18:22.402Z,4.43
2017-11-20T00:20:50.241Z,8.73
2017-11-20T00:23:17.667Z,5.17
2017-11-20T00:25:45.313Z,7.10
2017-11-20T00:28:12.741Z,6.70
2017-11-20T00:30:40.828Z,12.07
2017-11-20T00:33:08.795Z,5.90
2017-11-20T00:35:36.552Z,5.47
2017-11-20T00:38:03.986Z,4.43
2017-11-20T00:40:31.396Z,4.40
2017-11-20T00:42:58.839Z,4.70
2017-11-20T00:45:26.269Z,12.20
2017-11-20T00:47:53.690Z,5.07
2017-11-20T00:50:21.139Z,8.30
2017-11-20T00:52:48.567Z,5.70
2017-11-20T00:55:15.986Z,4.43
2017-11-20T00:57:43.781Z,7.97
2017-11-20T01:00:11.204Z,7.70
2017-11-20T01:02:38.625Z,9.23
2017-11-20T01:05:06.058Z,6.43
2017-11-20T01:07:33.482Z,4.87
2017-11-20T01:10:00.905Z,7.60
2017-11-20T01:12:28.918Z,10.10
2017-11-20T01:14:56.340Z,8.10
2017-11-20T01:17:23.765Z,7.90
2017-11-20T01:19:51.217Z,12.10
2017-11-20T01:22:18.642Z,11.10
2017-11-20T01:24:46.080Z,9.43
2017-11-20T01:27:13.505Z,5.80
2017-11-20T01:29:41.318Z,5.43
2017-11-20T01:32:08.743Z,9.00
2017-11-20T01:34:36.200Z,10.80
2017-11-20T01:37:03.621Z,8.10
2017-11-20T01:39:31.037Z,9.53
2017-11-20T01:41:58.574Z,5.40
2017-11-20T01:44:25.986Z,7.37
2017-11-20T01:46:53.800Z,6.63
2017-11-20T01:49:21.272Z,8.43
2017-11-20T01:51:48.682Z,7.83
2017-11-20T01:54:16.505Z,11.77
2017-11-20T01:56:43.960Z,7.23
2017-11-20T01:59:11.394Z,8.10
2017-11-20T02:01:38.836Z,38.57
2017-11-20T02:04:06.268Z,13.40
2017-11-20T02:06:33.698Z,34.03
2017-11-20T02:09:01.113Z,11.27
2017-11-20T02:11:28.570Z,5.00
2017-11-20T02:13:56.000Z,11.33
2017-11-20T02:16:23.424Z,10.37
2017-11-20T02:18:51.547Z,7.23
2017-11-20T02:21:18.965Z,8.37
2017-11-20T02:23:46.390Z,9.17
2017-11-20T02:26:13.832Z,6.23
2017-11-20T02:28:41.251Z,9.13
2017-11-20T02:31:08.676Z,7.70
2017-11-20T02:33:36.777Z,8.93
2017-11-20T02:36:04.194Z,7.33
2017-11-20T02:38:32.018Z,7.13
2017-11-20T02:40:59.437Z,9.80
2017-11-20T02:43:26.886Z,7.80
2017-11-20T02:45:54.306Z,6.50
2017-11-20T02:48:21.727Z,6.30
2017-11-20T02:50:49.165Z,5.53
2017-11-20T02:53:16.594Z,10.80
2017-11-20T02:55:44.051Z,23.07
2017-11-20T02:58:11.849Z,6.27
2017-11-20T03:00:39.265Z,10.20
2017-11-20T03:03:06.681Z,14.37
2017-11-20T03:05:34.138Z,7.73
2017-11-20T03:08:01.566Z,4.63
2017-11-20T03:10:29.001Z,10.50
2017-11-20T03:12:56.442Z,6.33
2017-11-20T03:15:23.869Z,12.40
2017-11-20T03:17:51.685Z,7.07
2017-11-20T03:20:19.133Z,9.57
2017-11-20T03:22:46.562Z,10.63
2017-11-20T03:25:14.372Z,11.30
2017-11-20T03:27:42.128Z,11.70
2017-11-20T03:30:09.584Z,13.10
2017-11-20T03:32:36.995Z,9.00
2017-11-20T03:35:04.821Z,8.10
2017-11-20T03:37:32.252Z,18.00
2017-11-20T03:39:59.683Z,9.00
2017-11-20T03:42:27.105Z,10.47
2017-11-20T03:44:54.530Z,13.03
2017-11-20T03:47:21.963Z,12.07
2017-11-20T03:49:50.553Z,15.07
2017-11-20T03:52:17.978Z,5.80
2017-11-20T03:54:45.402Z,15.33
2017-11-20T03:57:13.055Z,9.40
2017-11-20T03:59:40.478Z,8.60
2017-11-20T04:02:07.906Z,6.73
2017-11-20T04:04:35.698Z,14.30
2017-11-20T04:07:03.124Z,12.27
2017-11-20T04:09:30.549Z,10.97
2017-11-20T04:11:58.377Z,14.00
2017-11-20T04:14:25.797Z,11.40
2017-11-20T04:16:53.229Z,7.80
2017-11-20T04:19:21.049Z,10.27
2017-11-20T04:21:48.485Z,10.53
2017-11-20T04:24:16.152Z,10.33
2017-11-20T04:26:43.583Z,14.40
2017-11-20T04:29:11.000Z,12.80
2017-11-20T04:31:38.461Z,13.87
2017-11-20T04:34:06.291Z,13.60
2017-11-20T04:36:33.714Z,14.40
2017-11-20T04:39:01.146Z,13.60
2017-11-20T04:41:28.974Z,19.90
2017-11-20T04:43:56.400Z,8.23
2017-11-20T04:46:23.940Z,12.93
2017-11-20T04:48:54.509Z,10.80
2017-11-20T04:51:21.941Z,15.80
2017-11-20T04:53:49.392Z,9.13
2017-11-20T04:56:16.814Z,12.90
2017-11-20T04:58:44.641Z,18.43
2017-11-20T05:01:12.098Z,9.87
2017-11-20T05:03:39.509Z,7.53
2017-11-20T05:06:06.937Z,13.30
2017-11-20T05:08:34.869Z,10.27
2017-11-20T05:11:02.298Z,11.63
2017-11-20T05:13:29.727Z,14.53
2017-11-20T05:15:57.254Z,11.43
2017-11-20T05:18:24.676Z,14.53
2017-11-20T05:20:52.101Z,15.87
2017-11-20T05:23:19.537Z,8.87
2017-11-20T05:25:47.361Z,15.00
2017-11-20T05:28:14.786Z,16.10
2017-11-20T05:30:42.216Z,11.80
2017-11-20T05:33:09.645Z,14.77
2017-11-20T05:35:37.088Z,8.23
2017-11-20T05:38:04.509Z,9.57
2017-11-20T05:40:31.931Z,10.10
2017-11-20T05:43:00.032Z,18.70
2017-11-20T05:45:27.453Z,7.90
2017-11-20T05:47:54.873Z,13.00
2017-11-20T05:50:22.325Z,13.40
2017-11-20T05:52:49.746Z,8.50
2017-11-20T05:55:17.176Z,11.10
2017-11-20T05:57:45.010Z,12.10
2017-11-20T06:00:12.423Z,8.80
2017-11-20T06:02:39.878Z,13.13
2017-11-20T06:05:07.306Z,10.03
2017-11-20T06:07:34.736Z,14.47
2017-11-20T06:10:03.386Z,17.73
2017-11-20T06:12:30.805Z,11.43
2017-11-20T06:14:58.241Z,15.07
2017-11-20T06:17:26.075Z,15.80
2017-11-20T06:19:53.500Z,10.07
2017-11-20T06:22:20.930Z,15.23
2017-11-20T06:24:48.387Z,9.53
2017-11-20T06:27:15.834Z,10.13
2017-11-20T06:29:43.635Z,7.17
2017-11-20T06:32:11.169Z,8.80
2017-11-20T06:34:38.621Z,12.70
2017-11-20T06:37:06.044Z,16.20
2017-11-20T06:39:33.506Z,25.80
2017-11-20T06:42:00.917Z,9.60
2017-11-20T06:44:28.341Z,7.13
2017-11-20T06:46:55.789Z,12.73
2017-11-20T06:49:23.211Z,7.83
2017-11-20T06:51:50.630Z,17.03
2017-11-20T06:54:18.102Z,8.70
2017-11-20T06:56:45.489Z,6.40
2017-11-20T06:59:13.426Z,11.20
2017-11-20T07:01:40.850Z,9.00
2017-11-20T07:04:08.285Z,10.37
2017-11-20T07:06:35.728Z,8.70
2017-11-20T07:09:03.160Z,6.50
2017-11-20T07:11:30.580Z,10.00
2017-11-20T07:13:58.346Z,8.30
2017-11-20T07:16:25.773Z,13.30
2017-11-20T07:18:53.207Z,11.83
2017-11-20T07:21:21.296Z,7.57
2017-11-20T07:23:48.726Z,14.30
2017-11-20T07:26:30.358Z,10.30
2017-11-20T07:29:09.554Z,13.63
2017-11-20T07:31:37.006Z,8.20
2017-11-20T07:34:16.205Z,14.47
2017-11-20T07:36:55.569Z,12.00
2017-11-20T07:39:31.261Z,8.90
2017-11-20T07:41:58.702Z,8.73
2017-11-20T07:44:26.118Z,8.57
2017-11-20T07:46:53.939Z,11.33
2017-11-20T07:49:21.477Z,7.73
2017-11-20T07:51:48.892Z,11.67
2017-11-20T07:54:16.711Z,9.23
2017-11-20T07:56:44.158Z,12.03
2017-11-20T07:59:11.586Z,9.67
2017-11-20T08:01:39.010Z,9.40
2017-11-20T08:04:06.849Z,10.50
2017-11-20T08:06:34.279Z,10.50
2017-11-20T08:09:01.712Z,11.50
2017-11-20T08:11:29.138Z,9.33
2017-11-20T08:13:56.973Z,6.40
2017-11-20T08:16:24.399Z,6.63
2017-11-20T08:18:51.843Z,14.20
2017-11-20T08:21:20.345Z,6.93
2017-11-20T08:23:47.773Z,14.20
2017-11-20T08:26:15.219Z,8.43
2017-11-20T08:28:43.034Z,6.23
2017-11-20T08:31:10.517Z,8.53
2017-11-20T08:33:37.958Z,12.17
2017-11-20T08:36:05.490Z,15.30
2017-11-20T08:38:32.909Z,15.27
2017-11-20T08:41:00.345Z,6.47
2017-11-20T08:43:28.166Z,12.10
2017-11-20T08:45:55.621Z,6.10
2017-11-20T08:48:23.352Z,11.13
2017-11-20T08:50:50.823Z,7.20
2017-11-20T08:53:18.235Z,10.33
2017-11-20T08:55:46.056Z,10.67
2017-11-20T08:58:13.490Z,10.87
2017-11-20T09:00:40.914Z,7.37
2017-11-20T09:03:09.193Z,8.17
2017-11-20T09:05:36.618Z,16.80
2017-11-20T09:08:04.036Z,9.10
2017-11-20T09:10:31.470Z,6.47
2017-11-20T09:12:58.931Z,7.23
2017-11-20T09:15:26.341Z,8.80
2017-11-20T09:17:53.770Z,9.23
2017-11-20T09:20:21.237Z,7.77
2017-11-20T09:22:48.690Z,7.90
2017-11-20T09:25:16.114Z,8.10
2017-11-20T09:27:43.528Z,5.20
2017-11-20T09:30:11.360Z,6.07
2017-11-20T09:32:38.776Z,13.63
2017-11-20T09:35:06.200Z,14.50
2017-11-20T09:37:34.045Z,7.77
2017-11-20T09:40:01.473Z,7.87
2017-11-20T09:42:28.890Z,8.03
2017-11-20T09:44:56.580Z,9.13
2017-11-20T09:47:24.002Z,7.57
2017-11-20T09:49:51.819Z,5.60
2017-11-20T09:52:19.281Z,6.30
2017-11-20T09:54:46.710Z,9.80
2017-11-20T09:57:14.129Z,7.00
2017-11-20T09:59:41.593Z,12.33
2017-11-20T10:02:09.013Z,5.90
2017-11-20T10:04:36.433Z,7.63
2017-11-20T10:07:04.237Z,7.60
2017-11-20T10:09:31.641Z,7.03
2017-11-20T10:11:59.080Z,8.80
2017-11-20T10:14:26.510Z,11.93
2017-11-20T10:16:54.330Z,9.47
2017-11-20T10:19:21.753Z,10.50
2017-11-20T10:21:49.193Z,14.60
2017-11-20T10:24:16.645Z,7.37
2017-11-20T10:26:44.073Z,11.83
2017-11-20T10:29:11.516Z,8.80
2017-11-20T10:31:38.945Z,8.07
2017-11-20T10:34:06.374Z,11.90
2017-11-20T10:36:33.807Z,12.43
2017-11-20T10:39:01.621Z,13.67
2017-11-20T10:41:29.039Z,9.43
2017-11-20T10:43:56.842Z,10.67
2017-11-20T10:46:24.266Z,7.47
2017-11-20T10:48:51.690Z,9.70
2017-11-20T10:51:19.513Z,9.70
2017-11-20T10:53:46.935Z,8.63
2017-11-20T10:56:14.362Z,14.20
2017-11-20T10:58:42.370Z,12.70
2017-11-20T11:01:09.784Z,12.37
2017-11-20T11:03:37.738Z,9.90
2017-11-20T11:06:05.182Z,9.43
2017-11-20T11:08:32.608Z,8.80
2017-11-20T11:11:01.615Z,9.27
2017-11-20T11:13:30.041Z,12.33
2017-11-20T11:15:59.104Z,8.87
2017-11-20T11:18:26.508Z,13.70
2017-11-20T11:20:53.958Z,12.13
2017-11-20T11:23:21.378Z,12.40
2017-11-20T11:25:49.290Z,10.10
2017-11-20T11:28:16.714Z,9.77
2017-11-20T11:30:44.533Z,11.47
2017-11-20T11:33:13.464Z,8.53
2017-11-20T11:35:41.301Z,10.27
2017-11-20T11:38:08.731Z,10.27
2017-11-20T11:40:36.198Z,9.40
2017-11-20T11:43:03.638Z,12.70
2017-11-20T11:45:31.053Z,14.90
2017-11-20T11:47:59.774Z,15.83
2017-11-20T11:50:27.217Z,12.17
2017-11-20T11:52:54.640Z,11.70
2017-11-20T11:55:22.477Z,14.70
2017-11-20T11:57:50.502Z,12.50
2017-11-20T12:00:17.925Z,13.60
2017-11-20T12:02:45.749Z,13.03
2017-11-20T12:05:13.585Z,11.57
2017-11-20T12:07:41.013Z,13.17
2017-11-20T12:10:08.841Z,15.13
2017-11-20T12:12:36.269Z,10.20
2017-11-20T12:15:03.696Z,14.67
2017-11-20T12:17:31.141Z,25.00
2017-11-20T12:19:58.953Z,17.63
2017-11-20T12:22:26.396Z,11.50
2017-11-20T12:24:53.985Z,9.90
2017-11-20T12:27:21.708Z,13.23
2017-11-20T12:29:49.140Z,10.60
2017-11-20T12:32:16.565Z,13.63
2017-11-20T12:34:44.024Z,14.20
2017-11-20T12:37:11.449Z,12.37
2017-11-20T12:39:38.878Z,9.67
2017-11-20T12:42:06.319Z,10.50
2017-11-20T12:44:33.746Z,11.60
2017-11-20T12:47:01.193Z,15.33
2017-11-20T12:49:28.613Z,11.43
2017-11-20T12:51:56.069Z,12.30
2017-11-20T12:54:23.505Z,13.00
2017-11-20T12:56:50.962Z,12.10
2017-11-20T12:59:18.428Z,16.23
2017-11-20T13:01:45.851Z,11.03
2017-11-20T13:04:13.677Z,10.93
2017-11-20T13:06:42.825Z,10.83
2017-11-20T13:09:14.727Z,11.60
2017-11-20T13:11:42.506Z,9.83
2017-11-20T13:14:11.140Z,10.70
2017-11-20T13:16:38.667Z,10.63
2017-11-20T13:19:07.956Z,10.63
2017-11-20T13:21:35.412Z,10.77
2017-11-20T13:24:03.833Z,9.40
2017-11-20T13:26:31.301Z,11.17
2017-11-20T13:28:58.763Z,10.50
2017-11-20T13:31:26.238Z,10.10
2017-11-20T13:33:53.672Z,6.50
2017-11-20T13:36:21.113Z,6.23
2017-11-20T13:38:49.532Z,6.27
2017-11-20T13:41:18.625Z,5.83
2017-11-20T13:43:46.508Z,4.93
2017-11-20T13:46:14.670Z,5.70
2017-11-20T13:48:42.142Z,8.20
2017-11-20T13:51:09.986Z,6.90
2017-11-20T13:53:37.461Z,5.67
2017-11-20T13:56:05.302Z,6.87
2017-11-20T13:58:33.038Z,5.60
2017-11-20T14:01:00.485Z,6.60
2017-11-20T14:03:27.933Z,5.63
2017-11-20T14:05:55.549Z,6.93
2017-11-20T14:08:24.531Z,6.80
2017-11-20T14:10:52.439Z,7.20
2017-11-20T14:13:20.151Z,4.60
2017-11-20T14:15:47.578Z,6.60
2017-11-20T14:18:15.014Z,6.90
2017-11-20T14:20:43.482Z,5.60
2017-11-20T14:23:10.940Z,10.70
2017-11-20T14:25:38.361Z,7.33
2017-11-20T14:28:06.281Z,8.80
2017-11-20T14:30:33.724Z,6.73
2017-11-20T14:33:01.152Z,7.57
2017-11-20T14:35:28.618Z,6.13
2017-11-20T14:37:56.048Z,6.40
2017-11-20T14:40:23.870Z,6.83
2017-11-20T14:42:51.624Z,8.43
2017-11-20T14:45:19.044Z,6.83
2017-11-20T14:47:46.461Z,8.10
2017-11-20T14:50:13.895Z,7.30
2017-11-20T14:52:41.348Z,6.90
2017-11-20T14:55:08.799Z,8.70
2017-11-20T14:57:36.211Z,6.83
2017-11-20T15:00:04.208Z,7.13
2017-11-20T15:02:31.641Z,7.13
2017-11-20T15:04:59.052Z,12.17
2017-11-20T15:07:26.510Z,10.87
2017-11-20T15:09:53.934Z,7.40
2017-11-20T15:12:21.361Z,10.53
2017-11-20T15:14:48.820Z,8.20
2017-11-20T15:17:16.249Z,10.47
2017-11-20T15:19:44.070Z,8.20
2017-11-20T15:22:11.520Z,11.10
2017-11-20T15:24:39.377Z,10.70
2017-11-20T15:27:06.811Z,12.50
2017-11-20T15:29:34.319Z,10.40
2017-11-20T15:32:01.741Z,9.40
2017-11-20T15:34:30.915Z,11.10
2017-11-20T15:36:58.357Z,12.60
2017-11-20T15:39:27.009Z,11.97
2017-11-20T15:41:54.486Z,13.70
2017-11-20T15:44:22.329Z,13.57
2017-11-20T15:46:49.803Z,12.97
2017-11-20T15:49:17.655Z,17.70
2017-11-20T15:51:45.101Z,13.70
2017-11-20T15:54:12.566Z,22.53
2017-11-20T15:56:40.003Z,15.40
2017-11-20T15:59:07.453Z,15.60
2017-11-20T16:01:34.929Z,18.93
2017-11-20T16:04:02.358Z,17.60
2017-11-20T16:06:29.885Z,17.80
2017-11-20T16:08:57.609Z,15.43
2017-11-20T16:11:25.457Z,19.70
2017-11-20T16:13:52.894Z,18.80
2017-11-20T16:16:20.361Z,22.00
2017-11-20T16:18:48.669Z,23.40
2017-11-20T16:21:16.508Z,19.83
2017-11-20T16:23:43.936Z,19.13
2017-11-20T16:26:12.219Z,18.33
2017-11-20T16:28:39.670Z,19.80
2017-11-20T16:31:07.122Z,16.47
2017-11-20T16:33:34.810Z,19.20
2017-11-20T16:36:02.259Z,22.20
2017-11-20T16:38:29.760Z,24.80
2017-11-20T16:40:58.308Z,20.97
2017-11-20T16:43:25.789Z,23.23
2017-11-20T16:45:53.648Z,21.30
2017-11-20T16:48:21.489Z,20.40
2017-11-20T16:50:50.067Z,53.97
2017-11-20T16:53:17.533Z,25.00
2017-11-20T16:55:44.977Z,25.40
2017-11-20T16:58:24.940Z,21.17
2017-11-20T17:00:52.383Z,22.30
2017-11-20T17:03:31.603Z,21.30
2017-11-20T17:05:59.091Z,21.00
2017-11-20T17:08:26.534Z,23.60
2017-11-20T17:10:54.390Z,22.83
2017-11-20T17:13:21.834Z,23.43
2017-11-20T17:15:49.285Z,24.40
2017-11-20T17:18:16.737Z,27.80
2017-11-20T17:20:44.202Z,24.30
2017-11-20T17:23:11.658Z,22.83
2017-11-20T17:25:39.102Z,26.97
2017-11-20T17:28:06.569Z,25.37
2017-11-20T17:30:34.008Z,30.27
2017-11-20T17:33:01.466Z,25.77
2017-11-20T17:35:28.920Z,26.80
2017-11-20T17:37:56.367Z,24.10
2017-11-20T17:40:23.826Z,22.97
2017-11-20T17:42:51.301Z,23.90
2017-11-20T17:45:18.759Z,25.70
2017-11-20T17:47:46.202Z,30.00
2017-11-20T17:50:13.853Z,24.70
2017-11-20T17:52:41.271Z,27.10
2017-11-20T17:55:08.730Z,26.60
2017-11-20T17:57:36.310Z,28.30
2017-11-20T18:00:03.722Z,24.07
2017-11-20T18:02:31.561Z,24.77
2017-11-20T18:04:59.269Z,27.80
2017-11-20T18:07:26.715Z,28.13
2017-11-20T18:09:54.145Z,24.43
2017-11-20T18:12:21.603Z,29.00
2017-11-20T18:14:49.062Z,24.97
2017-11-20T18:17:16.914Z,25.10
2017-11-20T18:19:44.340Z,23.87
2017-11-20T18:22:11.830Z,23.30
2017-11-20T18:24:39.275Z,23.20
2017-11-20T18:27:06.713Z,25.10
2017-11-20T18:29:34.166Z,23.70
2017-11-20T18:32:01.610Z,25.60
2017-11-20T18:34:29.062Z,21.63
2017-11-20T18:36:56.516Z,23.07
2017-11-20T18:39:23.974Z,22.20
2017-11-20T18:41:51.441Z,25.17
2017-11-20T18:44:19.814Z,23.17
2017-11-20T18:46:47.274Z,27.27
2017-11-20T18:49:15.055Z,23.07
2017-11-20T18:51:42.505Z,24.40
2017-11-20T18:54:14.689Z,28.23
2017-11-20T18:56:42.544Z,27.93
2017-11-20T18:59:12.074Z,25.53
2017-11-20T19:01:51.390Z,27.03
2017-11-20T19:04:31.238Z,29.37
2017-11-20T19:07:10.642Z,24.83
2017-11-20T19:09:38.130Z,30.40
2017-11-20T19:12:06.177Z,22.27
2017-11-20T19:14:33.606Z,22.37
2017-11-20T19:17:01.057Z,25.10
2017-11-20T19:19:28.535Z,22.57
2017-11-20T19:21:55.963Z,22.73
2017-11-20T19:24:23.406Z,24.07
2017-11-20T19:26:50.886Z,25.70
2017-11-20T19:29:18.327Z,28.10
2017-11-20T19:31:45.786Z,26.53
2017-11-20T19:34:13.249Z,24.93
2017-11-20T19:36:40.690Z,24.03
2017-11-20T19:39:08.130Z,26.67
2017-11-20T19:41:35.574Z,23.37
2017-11-20T19:44:03.046Z,26.90
2017-11-20T19:46:30.507Z,28.40
2017-11-20T19:48:57.965Z,31.03
2017-11-20T19:51:25.401Z,32.90
2017-11-20T19:53:52.877Z,28.53
2017-11-20T19:56:20.585Z,28.30
2017-11-20T19:58:48.433Z,31.03
2017-11-20T20:01:15.865Z,32.13
2017-11-20T20:03:43.349Z,30.70
2017-11-20T20:06:10.806Z,31.00
2017-11-20T20:08:44.858Z,30.40
2017-11-20T20:11:12.300Z,28.30
2017-11-20T20:13:47.269Z,34.53
2017-11-20T20:16:20.422Z,31.60
2017-11-20T20:18:47.873Z,31.53
2017-11-20T20:21:15.730Z,32.70
2017-11-20T20:23:43.584Z,31.07
2017-11-20T20:26:11.023Z,34.20
2017-11-20T20:28:38.489Z,30.47
2017-11-20T20:31:05.950Z,33.50
2017-11-20T20:33:33.374Z,33.07
2017-11-20T20:36:01.098Z,35.03
2017-11-20T20:38:28.533Z,33.07
2017-11-20T20:40:55.979Z,33.50
2017-11-20T20:43:24.117Z,34.90
2017-11-20T20:45:51.576Z,33.30
2017-11-20T20:48:19.010Z,31.97
2017-11-20T20:50:46.547Z,33.77
2017-11-20T20:53:13.989Z,34.67
2017-11-20T20:55:41.491Z,30.00
2017-11-20T20:58:09.554Z,34.67
2017-11-20T21:00:36.998Z,32.40
2017-11-20T21:03:04.437Z,31.70
2017-11-20T21:05:33.826Z,31.87
2017-11-20T21:08:01.702Z,32.00
2017-11-20T21:10:34.730Z,31.47
2017-11-20T21:13:02.178Z,34.07
2017-11-20T21:15:29.626Z,34.03
2017-11-20T21:17:57.091Z,31.80
2017-11-20T21:20:24.540Z,37.87
2017-11-20T21:22:52.030Z,34.27
2017-11-20T21:25:19.877Z,27.90
2017-11-20T21:27:47.335Z,34.00
2017-11-20T21:30:14.750Z,34.17
2017-11-20T21:32:42.541Z,30.83
2017-11-20T21:35:09.983Z,30.67
2017-11-20T21:37:37.465Z,38.37
2017-11-20T21:40:04.950Z,29.90
2017-11-20T21:42:32.818Z,26.97
2017-11-20T21:45:00.259Z,33.50
2017-11-20T21:47:28.405Z,31.97
2017-11-20T21:49:55.938Z,32.63
2017-11-20T21:54:57.414Z,35.70
2017-11-20T21:57:24.857Z,31.43
2017-11-20T21:59:52.285Z,32.10
2017-11-20T22:02:19.722Z,33.47
2017-11-20T22:04:47.179Z,33.70
2017-11-20T22:07:15.036Z,34.27
2017-11-20T22:09:42.976Z,35.57
2017-11-20T22:12:10.406Z,31.40
2017-11-20T22:14:37.857Z,31.13
2017-11-20T22:17:05.309Z,33.53
2017-11-20T22:19:32.734Z,32.20
2017-11-20T22:22:00.181Z,33.00
2017-11-20T22:24:28.018Z,33.70
2017-11-20T22:26:55.571Z,32.07
2017-11-20T22:29:22.977Z,31.27
2017-11-20T22:31:50.401Z,32.57
2017-11-20T22:34:18.276Z,36.40
2017-11-20T22:36:45.736Z,34.60
2017-11-20T22:39:13.174Z,34.37
2017-11-20T22:41:41.008Z,33.83
2017-11-20T22:44:09.110Z,31.27
2017-11-20T22:46:36.530Z,30.57
2017-11-20T22:49:04.367Z,41.20
2017-11-20T22:51:31.789Z,34.67
2017-11-20T22:53:59.608Z,34.53
2017-11-20T22:56:27.043Z,34.50
2017-11-20T22:58:54.497Z,39.57
2017-11-20T23:01:21.929Z,36.37
2017-11-20T23:03:49.361Z,32.87
2017-11-20T23:06:17.193Z,38.60
2017-11-20T23:08:44.641Z,36.47
2017-11-20T23:11:12.249Z,29.93
2017-11-20T23:13:39.681Z,32.47
2017-11-20T23:16:07.113Z,31.30
2017-11-20T23:18:34.545Z,29.60
2017-11-20T23:21:02.110Z,29.63
2017-11-20T23:23:29.537Z,31.00
2017-11-20T23:25:56.966Z,32.27
2017-11-20T23:28:24.809Z,30.40
2017-11-20T23:30:52.304Z,28.23
2017-11-20T23:33:20.120Z,26.97
2017-11-20T23:35:47.561Z,26.87
2017-11-20T23:38:14.990Z,27.77
2017-11-20T23:40:42.439Z,26.57
2017-11-20T23:43:10.525Z,27.60
2017-11-20T23:45:37.953Z,31.87
2017-11-20T23:48:05.386Z,28.53
2017-11-20T23:50:32.858Z,32.43
2017-11-20T23:53:00.668Z,27.87
2017-11-20T23:55:28.111Z,29.50
2017-11-20T23:57:55.543Z,27.60
